createdAt,value
2023-05-13T00:01:12.555Z,14.33
2023-05-13T00:03:39.133Z,14.23
2023-05-13T00:06:05.923Z,14.45
2023-05-13T00:08:32.369Z,14.40
2023-05-13T00:10:58.881Z,14.22
2023-05-13T00:13:25.381Z,14.22
2023-05-13T00:15:52.035Z,14.24
2023-05-13T00:18:18.662Z,14.39
2023-05-13T00:20:45.307Z,14.32
2023-05-13T00:23:11.814Z,14.36
2023-05-13T00:25:38.322Z,14.30
2023-05-13T00:28:05.103Z,14.20
2023-05-13T00:30:31.458Z,14.28
2023-05-13T00:32:58.785Z,14.12
2023-05-13T00:35:25.280Z,14.15
2023-05-13T00:37:52.167Z,14.07
2023-05-13T00:40:24.330Z,14.12
2023-05-13T00:42:51.631Z,14.16
2023-05-13T00:45:18.516Z,14.16
2023-05-13T00:47:45.445Z,14.18
2023-05-13T00:50:12.160Z,14.23
2023-05-13T00:52:40.614Z,14.12
2023-05-13T00:55:08.509Z,14.13
2023-05-13T00:57:36.083Z,14.12
2023-05-13T01:00:05.855Z,13.90
2023-05-13T01:02:39.549Z,14.20
2023-05-13T01:05:41.301Z,14.15
2023-05-13T01:08:32.008Z,14.11
2023-05-13T01:11:14.303Z,13.93
2023-05-13T01:13:43.510Z,14.14
2023-05-13T01:16:19.137Z,13.99
2023-05-13T01:18:52.463Z,13.99
2023-05-13T01:21:29.278Z,14.03
2023-05-13T01:23:56.163Z,14.24
2023-05-13T01:26:24.320Z,14.11
2023-05-13T01:28:51.230Z,14.24
2023-05-13T01:31:19.411Z,14.29
2023-05-13T01:33:47.512Z,14.21
2023-05-13T01:51:45.723Z,13.00
2023-05-13T01:54:12.172Z,13.30
2023-05-13T01:56:39.022Z,13.41
2023-05-13T01:59:05.530Z,13.65
2023-05-13T02:01:32.129Z,13.69
2023-05-13T02:04:00.138Z,13.66
2023-05-13T02:06:28.005Z,13.43
2023-05-13T02:08:54.815Z,13.50
2023-05-13T02:11:21.885Z,13.61
2023-05-13T02:13:48.465Z,13.35
2023-05-13T02:16:17.518Z,13.57
2023-05-13T02:18:44.601Z,13.73
2023-05-13T02:21:11.137Z,13.59
2023-05-13T02:23:37.606Z,13.54
2023-05-13T02:26:04.085Z,13.67
2023-05-13T02:28:30.566Z,13.74
2023-05-13T02:30:56.967Z,13.77
2023-05-13T02:33:23.525Z,13.65
2023-05-13T02:35:50.381Z,13.59
2023-05-13T02:38:16.798Z,13.65
2023-05-13T02:40:43.234Z,13.45
2023-05-13T02:43:09.718Z,13.57
2023-05-13T02:45:36.198Z,13.40
2023-05-13T02:48:02.790Z,13.41
2023-05-13T02:50:29.306Z,13.43
2023-05-13T02:52:55.771Z,13.26
2023-05-13T02:55:22.317Z,13.38
2023-05-13T02:57:48.896Z,13.33
2023-05-13T03:00:15.948Z,13.45
2023-05-13T03:02:42.466Z,13.22
2023-05-13T03:05:09.503Z,13.24
2023-05-13T03:07:35.973Z,13.45
2023-05-13T03:10:04.963Z,13.14
2023-05-13T03:12:31.504Z,13.26
2023-05-13T03:14:57.980Z,13.11
2023-05-13T03:17:25.499Z,13.19
2023-05-13T03:19:52.048Z,13.15
2023-05-13T03:22:18.613Z,13.15
2023-05-13T03:24:45.318Z,13.21
2023-05-13T03:27:11.789Z,13.15
2023-05-13T03:29:38.310Z,13.23
2023-05-13T03:32:06.566Z,13.16
2023-05-13T03:34:33.559Z,13.21
2023-05-13T03:36:59.983Z,13.24
2023-05-13T03:39:26.549Z,13.10
2023-05-13T03:41:52.983Z,13.21
2023-05-13T03:44:19.466Z,12.97
2023-05-13T03:46:45.932Z,13.09
2023-05-13T03:49:12.487Z,13.11
2023-05-13T03:51:39.159Z,13.06
2023-05-13T03:54:05.697Z,13.21
2023-05-13T03:56:32.166Z,13.08
2023-05-13T03:58:58.594Z,13.09
2023-05-13T04:01:25.082Z,13.07
2023-05-13T04:03:51.685Z,13.12
2023-05-13T04:06:18.182Z,13.25
2023-05-13T04:15:31.869Z,12.85
2023-05-13T04:17:58.857Z,13.04
2023-05-13T04:20:25.861Z,13.24
2023-05-13T04:22:52.579Z,13.14
2023-05-13T04:25:19.066Z,13.16
2023-05-13T04:27:47.587Z,13.28
2023-05-13T04:34:19.510Z,13.02
2023-05-13T04:36:46.637Z,13.07
2023-05-13T04:39:13.114Z,13.23
2023-05-13T04:41:39.543Z,13.29
2023-05-13T04:44:07.114Z,13.36
2023-05-13T04:46:33.585Z,13.17
2023-05-13T04:49:00.192Z,13.19
2023-05-13T04:51:26.732Z,12.69
2023-05-13T04:53:53.711Z,13.26
2023-05-13T04:56:20.749Z,13.37
2023-05-13T04:58:47.213Z,13.55
2023-05-13T05:01:13.707Z,13.40
2023-05-13T05:03:40.369Z,13.22
2023-05-13T05:06:07.038Z,13.34
2023-05-13T05:08:33.483Z,13.43
2023-05-13T05:11:01.723Z,13.24
2023-05-13T05:13:28.187Z,13.41
2023-05-13T05:15:54.738Z,13.39
2023-05-13T05:18:21.263Z,13.34
2023-05-13T05:20:47.802Z,13.63
2023-05-13T05:23:14.354Z,13.37
2023-05-13T05:25:40.896Z,13.54
2023-05-13T05:28:09.321Z,13.62
2023-05-13T05:30:39.919Z,13.64
2023-05-13T05:33:08.000Z,13.38
2023-05-13T05:35:37.335Z,13.70
2023-05-13T05:38:08.447Z,13.75
2023-05-13T05:40:39.009Z,13.76
2023-05-13T05:43:05.498Z,13.96
2023-05-13T05:45:31.980Z,14.08
2023-05-13T05:47:58.503Z,13.99
2023-05-13T05:50:24.952Z,14.02
2023-05-13T05:52:51.468Z,14.37
2023-05-13T05:55:18.024Z,14.20
2023-05-13T05:57:44.443Z,14.47
2023-05-13T06:00:12.143Z,14.26
2023-05-13T06:02:57.360Z,14.69
2023-05-13T06:05:23.895Z,14.72
2023-05-13T06:07:50.451Z,14.73
2023-05-13T06:10:17.090Z,14.64
2023-05-13T06:12:43.859Z,14.81
2023-05-13T06:15:11.019Z,15.03
2023-05-13T06:17:38.446Z,14.80
2023-05-13T06:20:05.995Z,14.94
2023-05-13T06:22:32.482Z,14.94
2023-05-13T06:24:58.949Z,14.88
2023-05-13T06:27:25.676Z,15.32
2023-05-13T06:29:52.126Z,15.43
2023-05-13T06:32:18.670Z,15.19
2023-05-13T06:34:45.911Z,15.08
2023-05-13T06:37:13.689Z,15.29
2023-05-13T06:39:40.663Z,15.61
2023-05-13T06:42:07.250Z,15.72
2023-05-13T06:44:33.741Z,15.69
2023-05-13T06:47:00.899Z,15.71
2023-05-13T06:49:27.371Z,15.63
2023-05-13T06:51:53.967Z,15.96
2023-05-13T06:54:20.411Z,16.09
2023-05-13T06:56:46.967Z,16.10
2023-05-13T07:03:01.003Z,16.27
2023-05-13T07:05:27.476Z,16.38
2023-05-13T07:07:57.029Z,16.70
2023-05-13T07:10:25.057Z,16.86
2023-05-13T07:12:51.736Z,17.13
2023-05-13T07:15:18.212Z,17.03
2023-05-13T07:17:44.743Z,17.62
2023-05-13T07:20:11.546Z,17.62
2023-05-13T07:22:37.989Z,17.35
2023-05-13T07:25:04.825Z,17.38
2023-05-13T07:27:31.417Z,17.47
2023-05-13T07:29:58.101Z,17.48
2023-05-13T07:32:24.605Z,17.89
2023-05-13T07:34:51.177Z,18.20
2023-05-13T07:37:17.682Z,19.06
2023-05-13T07:39:44.148Z,20.11
2023-05-13T07:42:23.289Z,20.07
2023-05-13T07:44:50.069Z,19.30
2023-05-13T07:47:16.738Z,19.59
2023-05-13T07:49:43.263Z,20.59
2023-05-13T07:52:09.920Z,20.38
2023-05-13T07:54:36.405Z,19.69
2023-05-13T07:57:05.268Z,19.86
2023-05-13T07:59:32.021Z,20.13
2023-05-13T08:01:58.589Z,19.68
2023-05-13T08:04:25.424Z,19.45
2023-05-13T08:06:51.966Z,19.67
2023-05-13T08:09:18.561Z,19.38
2023-05-13T08:11:45.102Z,19.24
2023-05-13T08:14:11.556Z,19.24
2023-05-13T08:16:38.147Z,19.31
2023-05-13T08:19:04.985Z,19.15
2023-05-13T08:21:32.634Z,19.33
2023-05-13T08:23:59.081Z,19.35
2023-05-13T08:26:25.530Z,19.72
2023-05-13T08:28:54.646Z,19.09
2023-05-13T08:31:21.799Z,18.92
2023-05-13T08:33:48.719Z,19.07
2023-05-13T08:36:15.677Z,19.38
2023-05-13T08:38:43.517Z,19.38
2023-05-13T08:41:13.925Z,19.31
2023-05-13T08:43:41.022Z,19.81
2023-05-13T08:46:11.991Z,20.04
2023-05-13T08:48:40.983Z,19.72
2023-05-13T08:51:10.800Z,19.70
2023-05-13T08:53:40.000Z,19.65
2023-05-13T08:56:09.283Z,19.71
2023-05-13T08:58:35.921Z,19.63
2023-05-13T09:01:03.082Z,19.69
2023-05-13T09:03:29.581Z,19.54
2023-05-13T09:05:56.407Z,19.80
2023-05-13T09:08:22.826Z,19.79
2023-05-13T09:10:49.450Z,20.00
2023-05-13T09:13:17.334Z,20.02
2023-05-13T09:15:44.920Z,20.06
2023-05-13T09:18:12.980Z,19.86
2023-05-13T09:20:39.641Z,19.88
2023-05-13T09:23:08.378Z,20.00
2023-05-13T09:25:36.982Z,19.87
2023-05-13T09:28:05.465Z,20.19
2023-05-13T09:30:40.619Z,20.24
2023-05-13T09:33:11.996Z,20.41
2023-05-13T09:35:43.913Z,20.32
2023-05-13T09:38:26.946Z,20.44
2023-05-13T09:40:58.143Z,20.61
2023-05-13T09:43:34.159Z,20.34
2023-05-13T09:46:05.170Z,20.32
2023-05-13T09:48:33.301Z,20.52
2023-05-13T09:51:00.171Z,20.29
2023-05-13T09:53:28.098Z,20.33
2023-05-13T09:55:56.730Z,20.44
2023-05-13T09:58:24.566Z,20.36
2023-05-13T10:00:52.075Z,20.30
2023-05-13T10:03:18.788Z,20.70
2023-05-13T10:05:45.738Z,20.55
2023-05-13T10:08:13.944Z,20.78
2023-05-13T10:10:51.352Z,20.85
2023-05-13T10:13:20.107Z,20.97
2023-05-13T10:15:52.608Z,20.54
2023-05-13T10:18:20.402Z,21.01
2023-05-13T10:20:54.306Z,21.29
2023-05-13T10:23:22.688Z,21.12
2023-05-13T10:25:50.768Z,21.25
2023-05-13T10:28:17.801Z,21.09
2023-05-13T10:30:45.065Z,21.12
2023-05-13T10:33:12.133Z,21.22
2023-05-13T10:35:43.309Z,21.28
2023-05-13T10:38:40.909Z,21.41
2023-05-13T10:41:45.082Z,21.44
2023-05-13T10:44:12.467Z,21.24
2023-05-13T10:46:39.818Z,21.29
2023-05-13T10:49:14.689Z,21.03
2023-05-13T10:51:45.199Z,20.82
2023-05-13T10:54:22.478Z,21.10
2023-05-13T10:56:59.304Z,21.25
2023-05-13T10:59:32.647Z,21.09
2023-05-13T11:02:20.940Z,21.25
2023-05-13T11:05:00.885Z,21.42
2023-05-13T11:07:30.803Z,21.45
2023-05-13T11:09:57.306Z,21.60
2023-05-13T11:12:23.772Z,21.74
2023-05-13T11:14:51.822Z,21.44
2023-05-13T11:17:20.694Z,21.57
2023-05-13T11:19:49.977Z,21.35
2023-05-13T11:22:20.468Z,21.43
2023-05-13T11:25:12.873Z,21.63
2023-05-13T11:27:41.454Z,21.37
2023-05-13T11:30:21.708Z,21.65
2023-05-13T11:32:51.558Z,21.75
2023-05-13T11:35:32.592Z,21.90
2023-05-13T11:38:01.021Z,21.96
2023-05-13T11:40:32.788Z,21.84
2023-05-13T11:43:00.689Z,21.71
2023-05-13T11:45:28.552Z,22.06
2023-05-13T11:47:56.397Z,21.91
2023-05-13T11:50:30.819Z,22.06
2023-05-13T11:52:59.409Z,22.09
2023-05-13T11:55:27.394Z,22.52
2023-05-13T11:57:54.344Z,22.27
2023-05-13T12:00:31.319Z,22.08
2023-05-13T12:03:01.191Z,22.11
2023-05-13T12:05:28.115Z,22.07
2023-05-13T12:07:58.654Z,21.91
2023-05-13T12:10:26.463Z,22.41
2023-05-13T12:12:53.385Z,22.19
2023-05-13T12:15:21.622Z,22.11
2023-05-13T12:17:49.446Z,22.28
2023-05-13T12:20:18.056Z,22.54
2023-05-13T12:22:44.491Z,22.51
2023-05-13T12:25:46.689Z,22.99
2023-05-13T12:28:23.206Z,22.48
2023-05-13T12:30:58.310Z,22.30
2023-05-13T12:33:32.817Z,22.53
2023-05-13T12:36:15.414Z,21.92
2023-05-13T12:39:00.201Z,21.89
2023-05-13T12:41:31.617Z,21.70
2023-05-13T12:43:59.703Z,22.19
2023-05-13T12:46:26.935Z,22.13
2023-05-13T12:48:56.435Z,22.41
2023-05-13T12:51:23.398Z,22.43
2023-05-13T12:53:49.942Z,22.27
2023-05-13T12:56:16.363Z,22.15
2023-05-13T12:58:42.967Z,22.43
2023-05-13T13:01:09.489Z,22.44
2023-05-13T13:03:36.173Z,22.48
2023-05-13T13:06:02.811Z,22.52
2023-05-13T13:08:30.544Z,22.51
2023-05-13T13:10:58.283Z,22.39
2023-05-13T13:13:24.744Z,22.20
2023-05-13T13:15:54.620Z,22.42
2023-05-13T13:18:21.301Z,22.55
2023-05-13T13:20:47.723Z,22.61
2023-05-13T13:23:14.172Z,22.82
2023-05-13T13:25:40.738Z,22.71
2023-05-13T13:28:07.231Z,23.14
2023-05-13T13:30:33.833Z,22.66
2023-05-13T13:33:00.357Z,22.66
2023-05-13T13:35:26.948Z,22.46
2023-05-13T13:37:54.467Z,22.50
2023-05-13T13:40:21.326Z,22.51
2023-05-13T13:42:50.761Z,22.71
2023-05-13T13:45:18.087Z,22.72
2023-05-13T13:47:45.076Z,22.34
2023-05-13T13:50:11.726Z,22.69
2023-05-13T13:52:38.115Z,22.63
2023-05-13T13:55:04.956Z,22.77
2023-05-13T13:57:31.423Z,22.69
2023-05-13T13:59:57.889Z,22.49
2023-05-13T14:02:24.450Z,22.52
2023-05-13T14:04:51.000Z,22.72
2023-05-13T14:07:17.491Z,22.44
2023-05-13T14:09:44.015Z,22.76
2023-05-13T14:12:10.473Z,22.44
2023-05-13T14:14:36.934Z,21.67
2023-05-13T14:17:03.589Z,21.81
2023-05-13T14:19:30.084Z,22.27
2023-05-13T14:21:56.576Z,22.20
2023-05-13T14:24:23.391Z,22.36
2023-05-13T14:26:49.877Z,21.58
2023-05-13T14:29:16.307Z,21.62
2023-05-13T14:31:42.815Z,21.46
2023-05-13T14:34:09.267Z,21.25
2023-05-13T14:36:36.026Z,21.91
2023-05-13T14:39:02.356Z,22.27
2023-05-13T14:41:29.576Z,22.34
2023-05-13T14:43:56.017Z,22.77
2023-05-13T14:46:22.479Z,22.90
2023-05-13T14:48:48.967Z,22.61
2023-05-13T14:51:15.562Z,22.68
2023-05-13T14:53:42.448Z,22.44
2023-05-13T14:56:08.897Z,22.63
2023-05-13T14:58:35.402Z,23.06
2023-05-13T15:01:02.050Z,22.76
2023-05-13T15:03:28.619Z,22.84
2023-05-13T15:05:56.111Z,22.80
2023-05-13T15:08:22.719Z,22.64
2023-05-13T15:10:49.137Z,22.54
2023-05-13T15:13:15.843Z,22.57
2023-05-13T15:15:42.348Z,22.39
2023-05-13T15:18:08.811Z,22.87
2023-05-13T15:20:35.334Z,22.48
2023-05-13T15:23:01.785Z,22.17
2023-05-13T15:25:28.255Z,21.95
2023-05-13T15:27:54.725Z,21.99
2023-05-13T15:30:21.404Z,22.35
2023-05-13T15:32:48.019Z,22.53
2023-05-13T15:35:15.418Z,22.56
2023-05-13T15:37:42.745Z,22.73
2023-05-13T15:40:09.778Z,22.39
2023-05-13T15:42:36.854Z,22.78
2023-05-13T15:45:03.872Z,23.05
2023-05-13T15:47:33.177Z,22.77
2023-05-13T15:50:00.007Z,22.40
2023-05-13T15:52:27.734Z,22.41
2023-05-13T15:54:54.175Z,22.41
2023-05-13T15:57:20.765Z,22.11
2023-05-13T15:59:47.114Z,22.20
2023-05-13T16:02:13.668Z,21.70
2023-05-13T16:04:40.293Z,21.91
2023-05-13T16:07:11.143Z,21.55
2023-05-13T16:09:43.262Z,21.31
2023-05-13T16:12:10.156Z,20.93
2023-05-13T16:14:45.953Z,20.85
2023-05-13T16:17:23.290Z,20.84
2023-05-13T16:19:53.143Z,20.63
2023-05-13T16:22:33.862Z,20.48
2023-05-13T16:25:02.337Z,20.48
2023-05-13T16:27:29.451Z,20.40
2023-05-13T16:29:58.296Z,20.17
2023-05-13T16:32:25.512Z,20.43
2023-05-13T16:34:53.645Z,20.08
2023-05-13T16:37:20.399Z,20.13
2023-05-13T16:39:47.241Z,20.15
2023-05-13T16:42:13.851Z,20.17
2023-05-13T16:44:40.777Z,20.24
2023-05-13T16:47:08.858Z,19.81
2023-05-13T16:49:36.573Z,19.54
2023-05-13T16:52:04.356Z,19.62
2023-05-13T16:54:31.350Z,19.50
2023-05-13T16:57:05.402Z,19.34
2023-05-13T16:59:31.876Z,19.14
2023-05-13T17:02:00.009Z,19.17
2023-05-13T17:04:28.387Z,19.08
2023-05-13T17:06:59.262Z,19.37
2023-05-13T17:09:26.174Z,19.16
2023-05-13T17:11:52.702Z,19.37
2023-05-13T17:14:19.311Z,18.95
2023-05-13T17:16:56.915Z,18.86
2023-05-13T17:19:30.406Z,19.14
2023-05-13T17:21:59.414Z,19.10
2023-05-13T17:24:29.313Z,19.09
2023-05-13T17:26:56.695Z,19.10
2023-05-13T17:29:25.455Z,19.13
2023-05-13T17:32:19.268Z,19.19
2023-05-13T17:35:17.516Z,18.59
2023-05-13T17:38:22.688Z,19.04
2023-05-13T17:44:44.832Z,18.84
2023-05-13T17:47:04.223Z,18.78
2023-05-13T17:53:58.610Z,18.89
2023-05-13T17:56:35.293Z,19.02
2023-05-13T17:59:19.651Z,18.79
2023-05-13T18:02:13.120Z,18.62
2023-05-13T18:04:41.283Z,18.64
2023-05-13T18:07:13.747Z,18.68
2023-05-13T18:09:41.938Z,18.50
2023-05-13T18:12:18.503Z,18.34
2023-05-13T18:14:54.963Z,18.51
2023-05-13T18:17:32.786Z,18.33
2023-05-13T18:20:07.846Z,18.56
2023-05-13T18:22:35.688Z,18.31
2023-05-13T18:25:15.554Z,18.21
2023-05-13T18:30:56.027Z,18.08
2023-05-13T18:33:28.099Z,18.19
2023-05-13T18:35:59.994Z,17.97
2023-05-13T18:38:30.050Z,18.15
2023-05-13T18:41:20.253Z,18.04
2023-05-13T18:43:57.161Z,18.14
2023-05-13T18:46:26.953Z,18.12
2023-05-13T18:49:10.732Z,18.07
2023-05-13T18:51:46.750Z,17.91
2023-05-13T18:54:14.895Z,17.89
2023-05-13T18:56:45.161Z,17.78
2023-05-13T18:59:19.014Z,17.72
2023-05-13T19:02:00.097Z,17.70
2023-05-13T19:04:27.141Z,17.51
2023-05-13T19:07:00.519Z,17.71
2023-05-13T19:09:29.392Z,17.60
2023-05-13T19:12:05.271Z,17.38
2023-05-13T19:14:32.143Z,17.35
2023-05-13T19:17:13.128Z,17.29
2023-05-13T19:19:42.422Z,17.34
2023-05-13T19:22:18.048Z,17.37
2023-05-13T19:24:52.984Z,17.14
2023-05-13T19:27:20.037Z,17.19
2023-05-13T19:29:49.464Z,17.04
2023-05-13T19:32:18.872Z,17.13
2023-05-13T19:34:47.541Z,17.14
2023-05-13T19:37:20.505Z,17.15
2023-05-13T19:39:50.652Z,16.81
2023-05-13T19:42:20.784Z,16.88
2023-05-13T19:44:56.108Z,16.93
2023-05-13T19:47:23.041Z,16.76
2023-05-13T19:53:37.094Z,16.77
2023-05-13T19:56:12.776Z,16.30
2023-05-13T19:58:40.184Z,16.31
2023-05-13T20:01:15.143Z,16.37
2023-05-13T20:03:52.267Z,15.98
2023-05-13T20:06:27.378Z,16.00
2023-05-13T20:08:58.851Z,16.18
2023-05-13T20:11:28.342Z,16.02
2023-05-13T20:14:03.593Z,16.01
2023-05-13T20:16:36.162Z,15.96
2023-05-13T20:19:05.637Z,15.94
2023-05-13T20:21:34.853Z,15.71
2023-05-13T20:24:01.686Z,15.63
2023-05-13T20:26:31.761Z,15.68
2023-05-13T20:28:58.868Z,15.33
2023-05-13T20:31:28.317Z,15.31
2023-05-13T20:34:10.932Z,15.25
2023-05-13T20:36:49.862Z,15.19
2023-05-13T20:39:28.176Z,15.10
2023-05-13T20:42:00.179Z,15.14
2023-05-13T20:54:27.868Z,14.91
2023-05-13T20:56:54.492Z,14.85
2023-05-13T20:59:21.021Z,15.22
2023-05-13T21:01:57.219Z,15.08
2023-05-13T21:04:26.345Z,15.16
2023-05-13T21:06:53.034Z,14.91
2023-05-13T21:09:19.546Z,14.93
2023-05-13T21:11:46.055Z,14.99
2023-05-13T21:14:12.711Z,14.97
2023-05-13T21:16:39.154Z,14.82
2023-05-13T21:19:21.520Z,14.67
2023-05-13T21:22:06.709Z,14.46
2023-05-13T21:27:17.376Z,14.29
2023-05-13T21:29:58.084Z,14.60
2023-05-13T21:32:24.793Z,14.26
2023-05-13T21:34:54.647Z,14.41
2023-05-13T21:37:21.473Z,14.46
2023-05-13T21:39:47.991Z,14.63
2023-05-13T21:42:14.617Z,14.32
2023-05-13T21:44:41.551Z,14.08
2023-05-13T21:47:08.288Z,14.05
2023-05-13T21:49:34.667Z,14.27
2023-05-13T21:52:01.174Z,13.82
2023-05-13T21:54:27.670Z,14.18
2023-05-13T21:56:54.202Z,14.21
2023-05-13T21:59:20.719Z,14.12
2023-05-13T22:01:47.239Z,14.32
2023-05-13T22:04:13.723Z,14.23
2023-05-13T22:06:40.157Z,14.10
2023-05-13T22:09:06.964Z,14.37
2023-05-13T22:11:33.334Z,14.19
2023-05-13T22:14:00.346Z,14.04
2023-05-13T22:16:26.876Z,13.95
2023-05-13T22:18:55.824Z,14.18
2023-05-13T22:21:22.339Z,14.16
2023-05-13T22:23:49.014Z,14.13
2023-05-13T22:26:15.393Z,14.27
2023-05-13T22:28:41.866Z,13.93
2023-05-13T22:31:08.415Z,13.99
2023-05-13T22:33:34.860Z,13.87
2023-05-13T22:36:01.301Z,13.96
2023-05-13T22:38:27.728Z,13.97
2023-05-13T22:40:54.169Z,13.80
2023-05-13T22:43:20.873Z,13.77
2023-05-13T22:45:47.415Z,13.71
2023-05-13T22:48:13.852Z,13.73
2023-05-13T22:50:40.406Z,13.64
2023-05-13T22:53:06.865Z,13.62
2023-05-13T22:55:33.838Z,13.63
2023-05-13T22:58:00.331Z,13.54
2023-05-13T23:00:26.785Z,13.59
2023-05-13T23:02:53.318Z,13.58
2023-05-13T23:05:19.912Z,13.72
2023-05-13T23:07:46.370Z,13.76
2023-05-13T23:10:12.805Z,13.77
2023-05-13T23:12:39.276Z,13.85
2023-05-13T23:15:07.087Z,13.74
2023-05-13T23:17:33.674Z,13.76
2023-05-13T23:20:00.453Z,13.87
2023-05-13T23:22:26.793Z,14.07
2023-05-13T23:24:53.233Z,13.72
2023-05-13T23:27:19.670Z,13.73
2023-05-13T23:29:46.278Z,13.88
2023-05-13T23:32:12.730Z,13.70
2023-05-13T23:34:39.296Z,13.66
2023-05-13T23:37:05.877Z,13.53
2023-05-13T23:39:32.377Z,13.53
2023-05-13T23:41:58.848Z,13.39
2023-05-13T23:44:25.836Z,13.57
2023-05-13T23:46:52.656Z,13.36
2023-05-13T23:49:19.055Z,13.48
2023-05-13T23:51:45.511Z,13.32
2023-05-13T23:54:12.013Z,13.38
2023-05-13T23:56:38.495Z,13.26
2023-05-13T23:59:05.062Z,13.44
